아틀란 GPS 로그포멧 형식(?) 타입(?) 이 무엇인가요?

나다님 다른글 보기 추천 0 | 반대 0 | 조회수 3,841 | 2015-10-22 15:44:55

우선, 사이트가 너무 좋네요.... GPX 화일만 있으면 지도에 속도에.... 최고입니다...


본론으로....

아틀란 네비게이션에서 GPS 로그를 받았습니다..

확장자는 GPS 입니다.


GPSBabel 이용하여 GPX 로 변환하려는데, 소스 포멧 타입이 뭔지 모르겠습니다..


아래 일부를 발췌해서 첨부하겠습니다...감사합니다...


$GPGGA,234727.12,3728.6132,N,12703.4606,E,1,12,0.888,66.114,M,23.642,M,0,0*5D
$GPRMC,234727.12,A,3728.6132,N,12703.4606,E,18.749,141.358,211015,0,W,A*09
$GPVTG,141.358,T,141.358,M,18.749,N,34.724,K,A*26
$GPGSA,A,3,1,11,19,4,30,8,7,28,3,32,27,17,1.480,0.888,1.184*01
$GPGSV,4,1,13,1,88,112,39,3,24,152,23,4,58,50,40,7,29,213,34*46
$GPGSV,4,2,13,8,38,68,35,11,74,34,35,17,17,279,23,19,66,354,38*48
$GPGSV,4,3,13,22,3,36,18,27,7,83,20,28,43,317,25,30,41,252,30*77
$GPGSV,4,4,13,32,31,111,40*4D
$GPGGA,234728.12,3728.6094,N,12703.4643,E,1,12,0.888,65.891,M,23.642,M,0,0*59
$GPRMC,234728.12,A,3728.6094,N,12703.4643,E,16.984,140.856,211015,0,W,A*0F
$GPVTG,140.856,T,140.856,M,16.984,N,31.455,K,A*27
$GPGSA,A,3,1,11,19,4,30,8,7,28,3,32,27,17,1.480,0.888,1.184*01
$GPGGA,234729.12,3728.6058,N,12703.4679,E,1,11,1.000,66.186,M,23.642,M,0,0*57
$GPRMC,234729.12,A,3728.6058,N,12703.4679,E,16.159,141.527,211015,0,W,A*05
$GPVTG,141.527,T,141.527,M,16.159,N,29.927,K,A*2E
$GPGSA,A,3,1,11,19,4,30,8,7,28,3,17,32,,1.916,1.000,1.635*02
$GPGGA,234730.12,3728.6023,N,12703.4715,E,1,12,0.888,66.317,M,23.642,M,0,0*58
$GPRMC,234730.12,A,3728.6023,N,12703.4715,E,17.177,142.361,211015,0,W,A*00
$GPVTG,142.361,T,142.361,M,17.177,N,31.811,K,A*2E
$GPGSA,A,3,1,11,19,4,30,8,7,28,17,32,27,3,1.480,0.888,1.184*01
$GPGGA,234731.12,3728.5985,N,12703.4755,E,1,12,0.888,66.508,M,23.642,M,0,0*53
$GPRMC,234731.12,A,3728.5985,N,12703.4755,E,18.793,142.802,211015,0,W,A*0E
$GPVTG,142.802,T,142.802,M,18.793,N,34.804,K,A*2C
$GPGSA,A,3,1,11,19,4,30,8,7,28,17,32,27,3,1.480,0.888,1.184*01
$GPGGA,234732.12,3728.5940,N,12703.4797,E,1,12,0.888,67.074,M,23.642,M,0,0*58
$GPRMC,234732.12,A,3728.5940,N,12703.4797,E,20.570,142.506,211015,0,W,A*07
$GPVTG,142.506,T,142.506,M,20.570,N,38.096,K,A*27


댓글 운영 원칙

욕하지 마시고, 존중해 주세요.

무시하고,욕하고 하면 삭제합니다.

고맙습니다.

댓글 수정
댓글 작성
댓글 작성

| 댓글 운영원칙

나다
나다 | 2015-10-22 18:38:56.0

제가찾았네요...
NMEA 0183
이랍니다...
^^;

에브리트레일
에브리트레일 | 2015-10-23 11:30:30.0

사이트에 대한 칭찬으로 듣겠습니다. ^^ . 감사드려요.

우리나라 아름다운 길 - GPS 트랙 검색

에브리트레일 모바일 어플 다운로드